Saint Cloud, Wisconsin
Current Conditions -  °F | °C
As of 2:53 PM on Thursday 18 Dec 2014 (Local Time) from KFLD Reporting Station
Overcast Overcast  
Wind Chill: 20°   Ceiling: 1900
Heat Index: 28°   Visibility: 10mi
Dew Point: 19°   Wind: 8mph
Humidity: 69%   Direction: 20°NNE
Pressure: 30.23"   Gusts: NA
Location:  43.82°N, 88.17°W
Report Text: KFLD 182053Z AUTO 02007KT 10SM OVC019 M02/M07 A3023 RMK AO2 SLP248 T10221072 56009
Loading
Personal Weather Stations






























Interactive Weather Map New forecast layout! Learn more

10-Day Weather Forecast

Advertisements
Track Severe Weather on mobile